Sam Mbakwe International Airport

DNIM · Imo, 尼日利亚

罗盘
风向 的 Sam Mbakwe International Airport 17/35
风: 0 kt, 0 beaufort


改变
0 ft 1.000 2.000 3.000 4.000 5.000
Cloud Cloud Cloud Cloud Cloud Cloud
BKN 1.200
Cloud Cloud
FEW 2.000
METAR DNIM 041600Z 00000KT 9999 TS BKN012 FEW020CB 37/24 Q1007

METAR Sam Mbakwe International Airport - DNIM/QOW

Sam Mbakwe International Airport是,尼日利亚中的中型机场。 该机场位于纬度5,42706和经度7,20603。 该机场有一条跑道: 17/35. 本场的ICAO机场代码为DNIM。 该机场的IATA代码为QOW。 机场在Kano FIR中。

该航空气象观测是针对Sam Mbakwe International Airport在2024年3月4日 17:00, 当地时间进行的。

机场观察

可变方向的风很小或没有风。

可见度为10 km 或者更多。

有碎云在1.200 ft的高度 和 几云 积雨云在2.000 ft的高度。 破损或更高的上限为1.200 ft。

当前天气为雷暴 。 温度和风寒是37 °C。 热指数为45。 露点为24 °C,相对湿度为47%。 海平面上的气压为1007 hPa (QNH)。

白天

今天,太阳从06:41升起,在18:43降落。 这适用于Sam Mbakwe International Airport,世界夏令时可能有所不同。 当地时间与世界标准时间之间的时差为+1 小时。 当前,没有夏令时有效。

公司介绍

我们没有关于这个机场的公司信息。

体会

到Vliegles.nl去找飞行课程,跳伞和其他飞行体验。 浏览页面,了解Sam Mbakwe International Airport附近所有可用的活动。 你也可以使用搜索功能来寻找你所在地附近的特定飞行课程、跳伞或其他飞行体验。

跑道

Id 标题 侧风 逆风 侧风 %
17/35 167°-347°

逆风成分最大的方向会被突出显示,并用于横风计算。 这并不一定意味着这个方向在使用。

乌云

1.200 ft BKN 碎云
2.000 ft FEW 几云 积雨云

温度 & 天气

天气 雷暴
温度 37 °C
露点 24 °C
相对湿度 47%
热度指数 45 °C
Kp-index 1 (0-9)

白天

日出
06:41 (11:52)
中午
12:42
日落
18:43

小工具

你想在你的网站上有一个关于Sam Mbakwe International Airport的当前航空天气(METAR)的小部件吗?

显示HTML代码
?>